createdAt,value
2022-10-12T00:00:39.205Z,48.90
2022-10-12T00:03:28.586Z,49.10
2022-10-12T00:06:20.301Z,49.00
2022-10-12T00:09:11.050Z,48.90
2022-10-12T00:12:00.410Z,49.10
2022-10-12T00:14:49.970Z,49.10
2022-10-12T00:17:39.840Z,49.10
2022-10-12T00:20:29.433Z,49.00
2022-10-12T00:23:18.811Z,49.00
2022-10-12T00:26:14.839Z,49.20
2022-10-12T00:29:05.248Z,49.40
2022-10-12T00:31:54.631Z,49.20
2022-10-12T00:34:43.933Z,49.20
2022-10-12T00:37:33.214Z,49.30
2022-10-12T00:40:22.722Z,49.40
2022-10-12T00:46:08.133Z,49.40
2022-10-12T00:49:04.033Z,50.50
2022-10-12T00:52:00.046Z,50.50
2022-10-12T00:54:51.568Z,50.40
2022-10-12T00:57:45.934Z,50.30
2022-10-12T01:00:37.343Z,50.30
2022-10-12T01:03:28.350Z,50.40
2022-10-12T01:06:18.602Z,50.30
2022-10-12T01:09:08.023Z,50.40
2022-10-12T01:11:59.018Z,50.40
2022-10-12T01:14:48.422Z,50.50
2022-10-12T01:17:50.610Z,50.60
2022-10-12T01:20:57.469Z,50.60
2022-10-12T01:24:36.706Z,50.70
2022-10-12T01:27:46.732Z,51.10
2022-10-12T01:30:40.123Z,51.00
2022-10-12T01:33:37.439Z,50.60
2022-10-12T01:36:34.062Z,50.70
2022-10-12T01:39:30.313Z,50.70
2022-10-12T01:42:24.785Z,50.70
2022-10-12T01:45:18.282Z,50.60
2022-10-12T01:48:09.049Z,50.70
2022-10-12T01:51:03.393Z,50.80
2022-10-12T01:54:07.805Z,51.00
2022-10-12T01:57:04.078Z,51.10
2022-10-12T02:00:05.190Z,50.90
2022-10-12T02:03:04.359Z,51.10
2022-10-12T02:06:01.014Z,51.00
2022-10-12T02:08:57.186Z,51.10
2022-10-12T02:11:48.494Z,51.10
2022-10-12T02:14:42.063Z,51.00
2022-10-12T02:17:33.671Z,51.00
2022-10-12T02:20:26.229Z,50.80
2022-10-12T02:23:18.690Z,51.00
2022-10-12T02:26:09.669Z,51.10
2022-10-12T02:29:01.459Z,51.00
2022-10-12T02:31:58.360Z,50.90
2022-10-12T02:34:54.956Z,51.00
2022-10-12T02:37:48.725Z,51.00
2022-10-12T02:40:44.681Z,50.90
2022-10-12T02:43:39.626Z,51.20
2022-10-12T02:46:31.465Z,51.50
2022-10-12T02:49:21.469Z,51.30
2022-10-12T02:52:11.278Z,51.20
2022-10-12T02:55:01.268Z,51.40
2022-10-12T02:57:52.046Z,51.60
2022-10-12T03:00:41.389Z,51.70
2022-10-12T03:03:30.946Z,51.90
2022-10-12T03:06:21.178Z,52.00
2022-10-12T03:09:10.596Z,51.90
2022-10-12T03:11:59.967Z,51.90
2022-10-12T03:14:50.662Z,52.00
2022-10-12T03:17:40.399Z,52.20
2022-10-12T03:20:29.863Z,52.20
2022-10-12T03:23:19.161Z,52.30
2022-10-12T03:26:08.870Z,52.30
2022-10-12T03:28:58.341Z,52.40
2022-10-12T03:31:49.075Z,52.50
2022-10-12T03:34:38.367Z,52.80
2022-10-12T03:37:27.648Z,52.80
2022-10-12T03:40:17.247Z,52.70
2022-10-12T03:43:06.661Z,52.60
2022-10-12T03:45:55.961Z,52.80
2022-10-12T03:48:46.698Z,52.80
2022-10-12T03:51:35.962Z,52.90
2022-10-12T03:54:25.320Z,52.80
2022-10-12T03:57:14.656Z,52.70
2022-10-12T04:00:04.381Z,52.60
2022-10-12T04:03:13.631Z,52.50
2022-10-12T04:06:04.785Z,52.40
2022-10-12T04:08:54.161Z,52.40
2022-10-12T04:11:43.458Z,52.30
2022-10-12T04:14:32.753Z,52.30
2022-10-12T04:17:22.117Z,52.30
2022-10-12T04:20:12.868Z,52.30
2022-10-12T04:23:03.590Z,52.50
2022-10-12T04:25:52.929Z,52.50
2022-10-12T04:28:42.320Z,52.30
2022-10-12T04:31:31.899Z,52.40
2022-10-12T04:34:21.589Z,52.50
2022-10-12T04:37:10.923Z,52.40
2022-10-12T04:40:01.614Z,52.40
2022-10-12T04:42:50.917Z,52.50
2022-10-12T04:45:40.298Z,52.40
2022-10-12T04:48:29.601Z,52.50
2022-10-12T04:51:19.550Z,52.50
2022-10-12T04:54:08.900Z,52.40
2022-10-12T04:56:59.624Z,52.40
2022-10-12T04:59:49.085Z,52.50
2022-10-12T05:02:38.401Z,52.60
2022-10-12T05:05:27.807Z,52.60
2022-10-12T05:08:17.230Z,52.70
2022-10-12T05:11:06.908Z,52.60
2022-10-12T05:13:57.969Z,52.70
2022-10-12T05:16:47.246Z,52.80
2022-10-12T05:19:36.557Z,52.70
2022-10-12T05:22:25.931Z,52.80
2022-10-12T05:25:15.436Z,52.70
2022-10-12T05:28:05.381Z,52.80
2022-10-12T05:30:56.174Z,53.10
2022-10-12T05:33:45.761Z,53.20
2022-10-12T05:36:35.066Z,53.20
2022-10-12T05:39:24.603Z,53.30
2022-10-12T05:42:14.137Z,53.40
2022-10-12T05:45:03.527Z,53.60
2022-10-12T05:47:54.204Z,53.70
2022-10-12T05:50:43.490Z,53.70
2022-10-12T05:53:32.836Z,53.90
2022-10-12T05:56:22.117Z,54.20
2022-10-12T05:59:12.220Z,54.50
2022-10-12T06:02:01.766Z,55.20
2022-10-12T06:04:53.078Z,55.90
2022-10-12T06:07:42.476Z,56.50
2022-10-12T06:10:32.234Z,56.10
2022-10-12T06:13:21.754Z,56.70
2022-10-12T06:16:11.145Z,57.20
2022-10-12T06:19:01.339Z,57.60
2022-10-12T06:21:52.013Z,57.80
2022-10-12T06:24:41.376Z,58.10
2022-10-12T06:27:30.717Z,58.30
2022-10-12T06:30:20.173Z,58.30
2022-10-12T06:33:09.684Z,58.30
2022-10-12T06:35:59.038Z,58.60
2022-10-12T06:38:49.708Z,58.80
2022-10-12T06:41:39.079Z,58.70
2022-10-12T06:44:32.803Z,57.70
2022-10-12T06:47:22.186Z,56.50
2022-10-12T06:50:12.657Z,55.60
2022-10-12T06:53:01.961Z,54.90
2022-10-12T06:55:52.669Z,54.90
2022-10-12T06:58:42.147Z,54.90
2022-10-12T07:01:31.573Z,54.70
2022-10-12T07:04:21.043Z,54.60
2022-10-12T07:07:10.403Z,54.20
2022-10-12T07:09:59.813Z,54.50
2022-10-12T07:12:50.570Z,54.00
2022-10-12T07:15:39.898Z,54.40
2022-10-12T07:18:29.257Z,54.40
2022-10-12T07:21:18.674Z,54.00
2022-10-12T07:24:08.617Z,53.90
2022-10-12T07:26:57.947Z,55.10
2022-10-12T07:29:48.665Z,56.50
2022-10-12T07:32:38.031Z,57.00
2022-10-12T07:35:27.338Z,58.00
2022-10-12T07:38:16.646Z,58.70
2022-10-12T07:41:06.201Z,59.20
2022-10-12T07:43:56.889Z,59.60
2022-10-12T07:46:48.191Z,59.40
2022-10-12T07:49:37.508Z,59.10
2022-10-12T07:52:27.538Z,58.70
2022-10-12T07:55:17.031Z,58.00
2022-10-12T07:58:06.386Z,57.70
2022-10-12T08:00:55.781Z,57.20
2022-10-12T08:03:46.506Z,57.00
2022-10-12T08:06:36.254Z,56.80
2022-10-12T08:09:25.775Z,56.70
2022-10-12T08:12:15.423Z,56.50
2022-10-12T08:15:05.354Z,55.90
2022-10-12T08:17:54.674Z,56.10
2022-10-12T08:20:45.424Z,56.30
2022-10-12T08:23:36.714Z,56.20
2022-10-12T08:26:26.081Z,56.30
2022-10-12T08:29:15.398Z,56.10
2022-10-12T08:32:05.008Z,55.40
2022-10-12T08:34:54.893Z,54.90
2022-10-12T08:37:45.801Z,54.40
2022-10-12T08:40:43.707Z,54.30
2022-10-12T08:43:51.450Z,53.80
2022-10-12T08:46:40.809Z,52.20
2022-10-12T08:49:32.753Z,53.00
2022-10-12T08:52:32.071Z,53.00
2022-10-12T08:55:37.408Z,52.50
2022-10-12T08:58:32.906Z,52.20
2022-10-12T09:01:29.324Z,53.00
2022-10-12T09:04:39.630Z,52.90
2022-10-12T09:07:32.551Z,51.80
2022-10-12T09:10:38.640Z,52.30
2022-10-12T09:13:43.727Z,51.10
2022-10-12T09:16:37.078Z,50.70
2022-10-12T09:19:34.053Z,51.00
2022-10-12T09:22:23.402Z,49.80
2022-10-12T09:25:15.857Z,50.00
2022-10-12T09:28:18.778Z,49.80
2022-10-12T09:31:26.305Z,49.10
2022-10-12T09:34:19.193Z,48.70
2022-10-12T09:37:19.801Z,48.70
2022-10-12T09:40:21.786Z,48.10
2022-10-12T09:43:13.077Z,47.40
2022-10-12T09:46:07.447Z,48.20
2022-10-12T09:49:00.202Z,48.00
2022-10-12T09:52:00.302Z,47.70
2022-10-12T09:54:53.287Z,47.40
2022-10-12T09:57:45.149Z,47.30
2022-10-12T10:00:36.879Z,47.00
2022-10-12T10:03:30.613Z,46.70
2022-10-12T10:06:26.372Z,46.70
2022-10-12T10:09:33.663Z,46.00
2022-10-12T10:12:27.462Z,45.40
2022-10-12T10:15:30.649Z,46.20
2022-10-12T10:18:34.654Z,45.30
2022-10-12T10:21:30.661Z,45.70
2022-10-12T10:24:29.381Z,45.60
2022-10-12T10:27:33.348Z,45.10
2022-10-12T10:30:32.479Z,44.80
2022-10-12T10:33:27.833Z,45.80
2022-10-12T10:36:22.335Z,45.60
2022-10-12T10:39:21.822Z,45.00
2022-10-12T10:42:12.715Z,44.30
2022-10-12T10:45:06.865Z,44.20
2022-10-12T10:48:01.469Z,43.40
2022-10-12T10:50:57.548Z,43.10
2022-10-12T10:53:51.572Z,42.50
2022-10-12T10:56:41.246Z,42.40
2022-10-12T10:59:45.189Z,42.80
2022-10-12T11:02:39.881Z,42.00
2022-10-12T11:05:32.347Z,42.40
2022-10-12T11:08:27.052Z,42.40
2022-10-12T11:11:21.742Z,42.30
2022-10-12T11:14:18.242Z,42.50
2022-10-12T11:17:13.385Z,41.90
2022-10-12T11:20:24.592Z,41.90
2022-10-12T11:23:26.400Z,40.80
2022-10-12T11:26:25.652Z,39.50
2022-10-12T11:29:17.836Z,38.60
2022-10-12T11:32:20.547Z,38.40
2022-10-12T11:35:17.899Z,38.00
2022-10-12T11:38:15.372Z,37.80
2022-10-12T11:41:34.991Z,37.70
2022-10-12T11:44:30.553Z,37.60
2022-10-12T11:47:33.142Z,37.80
2022-10-12T11:50:33.287Z,37.90
2022-10-12T11:53:31.637Z,38.00
2022-10-12T11:56:27.051Z,38.20
2022-10-12T11:59:23.404Z,38.40
2022-10-12T12:02:19.601Z,38.60
2022-10-12T12:05:16.595Z,38.60
2022-10-12T12:08:06.591Z,38.70
2022-10-12T12:11:07.522Z,38.60
2022-10-12T12:17:31.550Z,39.20
2022-10-12T12:21:03.271Z,39.20
2022-10-12T12:23:55.232Z,39.40
2022-10-12T12:26:49.235Z,39.40
2022-10-12T12:29:38.573Z,39.60
2022-10-12T12:32:45.774Z,39.60
2022-10-12T12:35:40.103Z,39.90
2022-10-12T12:38:33.562Z,40.00
2022-10-12T12:41:26.003Z,40.20
2022-10-12T12:44:37.803Z,40.30
2022-10-12T12:47:45.936Z,40.60
2022-10-12T12:50:37.966Z,40.80
2022-10-12T12:53:27.420Z,40.70
2022-10-12T12:56:24.493Z,40.70
2022-10-12T12:59:43.429Z,41.10
2022-10-12T13:03:25.394Z,41.30
2022-10-12T13:07:00.603Z,41.40
2022-10-12T13:10:11.807Z,41.50
2022-10-12T13:13:38.720Z,41.50
2022-10-12T13:20:21.562Z,41.60
2022-10-12T13:23:19.389Z,41.40
2022-10-12T13:26:11.273Z,41.60
2022-10-12T13:29:03.017Z,41.60
2022-10-12T13:31:55.779Z,41.70
2022-10-12T13:34:48.551Z,41.80
2022-10-12T13:37:37.846Z,42.00
2022-10-12T13:40:34.337Z,42.00
2022-10-12T13:43:37.953Z,42.20
2022-10-12T13:46:41.983Z,42.30
2022-10-12T13:49:34.329Z,42.50
2022-10-12T13:52:32.422Z,42.40
2022-10-12T13:55:27.468Z,42.50
2022-10-12T13:58:27.446Z,42.70
2022-10-12T14:01:16.838Z,42.80
2022-10-12T14:04:09.293Z,42.60
2022-10-12T14:07:02.531Z,42.70
2022-10-12T14:09:56.932Z,42.90
2022-10-12T14:12:48.273Z,42.90
2022-10-12T14:15:41.617Z,42.90
2022-10-12T14:18:40.470Z,42.90
2022-10-12T14:21:36.626Z,43.10
2022-10-12T14:24:26.430Z,43.00
2022-10-12T14:27:25.805Z,43.00
2022-10-12T14:30:22.551Z,43.20
2022-10-12T14:33:23.614Z,43.10
2022-10-12T14:36:15.528Z,43.00
2022-10-12T14:39:15.249Z,42.80
2022-10-12T14:42:05.553Z,43.00
2022-10-12T14:44:55.403Z,42.90
2022-10-12T14:47:44.860Z,42.90
2022-10-12T14:50:35.657Z,42.90
2022-10-12T14:53:29.211Z,42.90
2022-10-12T14:56:18.684Z,43.00
2022-10-12T14:59:08.067Z,42.90
2022-10-12T15:01:57.405Z,43.10
2022-10-12T15:04:47.966Z,43.20
2022-10-12T15:07:39.224Z,43.30
2022-10-12T15:10:30.137Z,43.30
2022-10-12T15:13:19.493Z,43.50
2022-10-12T15:16:21.493Z,43.50
2022-10-12T15:19:10.954Z,43.80
2022-10-12T15:22:00.257Z,43.60
2022-10-12T15:24:52.432Z,43.60
2022-10-12T15:27:41.701Z,43.70
2022-10-12T15:30:31.261Z,43.70
2022-10-12T15:33:20.596Z,43.70
2022-10-12T15:36:10.315Z,43.80
2022-10-12T15:38:59.630Z,43.80
2022-10-12T15:41:50.316Z,43.80
2022-10-12T15:44:41.995Z,44.00
2022-10-12T15:47:31.321Z,43.90
2022-10-12T15:50:24.415Z,43.90
2022-10-12T15:53:17.878Z,44.10
2022-10-12T15:56:13.021Z,44.30
2022-10-12T15:59:03.868Z,44.20
2022-10-12T16:01:53.437Z,44.20
2022-10-12T16:04:42.751Z,44.10
2022-10-12T16:07:32.217Z,44.20
2022-10-12T16:10:25.013Z,44.30
2022-10-12T16:13:14.997Z,44.40
2022-10-12T16:16:07.046Z,44.40
2022-10-12T16:18:56.442Z,44.50
2022-10-12T16:21:45.830Z,44.50
2022-10-12T16:24:35.317Z,44.50
2022-10-12T16:27:24.768Z,44.60
2022-10-12T16:30:15.639Z,44.60
2022-10-12T16:33:06.334Z,44.60
2022-10-12T16:35:55.777Z,44.80
2022-10-12T16:38:46.120Z,44.80
2022-10-12T16:41:35.406Z,44.90
2022-10-12T16:44:24.818Z,44.90
2022-10-12T16:47:14.909Z,44.90
2022-10-12T16:50:06.569Z,45.00
2022-10-12T16:52:55.881Z,45.20
2022-10-12T16:55:45.236Z,45.00
2022-10-12T16:58:34.701Z,45.20
2022-10-12T17:01:24.177Z,45.30
2022-10-12T17:04:13.965Z,45.50
2022-10-12T17:07:04.914Z,45.50
2022-10-12T17:09:55.830Z,45.60
2022-10-12T17:12:45.199Z,45.60
2022-10-12T17:15:34.606Z,45.60
2022-10-12T17:18:23.959Z,45.60
2022-10-12T17:21:13.353Z,45.80
2022-10-12T17:24:04.065Z,45.90
2022-10-12T17:26:54.487Z,45.90
2022-10-12T17:29:43.949Z,45.90
2022-10-12T17:32:37.568Z,45.90
2022-10-12T17:35:26.938Z,45.90
2022-10-12T17:38:16.641Z,46.00
2022-10-12T17:41:07.736Z,46.30
2022-10-12T17:43:58.785Z,46.30
2022-10-12T17:46:49.664Z,46.30
2022-10-12T17:49:41.830Z,46.30
2022-10-12T17:52:31.771Z,46.40
2022-10-12T17:55:43.533Z,46.40
2022-10-12T17:58:32.492Z,46.40
2022-10-12T18:01:21.856Z,46.60
2022-10-12T18:04:12.929Z,46.50
2022-10-12T18:07:02.304Z,46.70
2022-10-12T18:09:51.683Z,46.70
2022-10-12T18:12:41.240Z,46.80
2022-10-12T18:15:32.129Z,46.80
2022-10-12T18:18:21.690Z,46.90
2022-10-12T18:21:13.991Z,47.00
2022-10-12T18:24:06.761Z,47.00
2022-10-12T18:26:56.251Z,47.20
2022-10-12T18:29:45.975Z,47.20
2022-10-12T18:32:37.173Z,47.10
2022-10-12T18:35:26.582Z,47.40
2022-10-12T18:38:15.917Z,47.40
2022-10-12T18:41:07.023Z,47.40
2022-10-12T18:43:58.262Z,47.50
2022-10-12T18:46:47.577Z,47.50
2022-10-12T18:49:38.407Z,47.60
2022-10-12T18:52:27.767Z,47.80
2022-10-12T18:55:17.427Z,47.70
2022-10-12T18:58:07.449Z,47.80
2022-10-12T19:00:56.851Z,48.00
2022-10-12T19:03:46.549Z,48.60
2022-10-12T19:06:40.097Z,48.00
2022-10-12T19:09:29.461Z,48.10
2022-10-12T19:12:19.887Z,48.10
2022-10-12T19:15:10.814Z,48.00
2022-10-12T19:18:00.156Z,48.10
2022-10-12T19:20:49.471Z,48.10
2022-10-12T19:23:40.863Z,48.20
2022-10-12T19:26:30.350Z,48.30
2022-10-12T19:29:19.766Z,48.30
2022-10-12T19:32:09.238Z,48.40
2022-10-12T19:34:59.260Z,48.40
2022-10-12T19:37:48.581Z,48.60
2022-10-12T19:40:39.316Z,48.70
2022-10-12T19:43:29.398Z,48.70
2022-10-12T19:46:18.761Z,48.60
2022-10-12T19:49:08.459Z,48.80
2022-10-12T19:51:57.828Z,48.60
2022-10-12T19:54:47.408Z,48.80
2022-10-12T19:57:38.957Z,49.00
2022-10-12T20:00:28.714Z,48.90
2022-10-12T20:03:18.110Z,49.50
2022-10-12T20:06:09.458Z,49.00
2022-10-12T20:09:01.540Z,49.20
2022-10-12T20:11:50.869Z,49.20
2022-10-12T20:14:41.858Z,49.20
2022-10-12T20:17:31.195Z,49.30
2022-10-12T20:20:21.662Z,49.30
2022-10-12T20:23:11.294Z,49.40
2022-10-12T20:26:00.746Z,49.50
2022-10-12T20:28:51.004Z,49.50
2022-10-12T20:31:41.869Z,49.50
2022-10-12T20:34:31.188Z,49.50
2022-10-12T20:37:21.826Z,49.60
2022-10-12T20:40:12.088Z,49.80
2022-10-12T20:43:01.372Z,49.80
2022-10-12T20:45:50.759Z,50.00
2022-10-12T20:48:42.120Z,50.00
2022-10-12T20:51:34.094Z,50.10
2022-10-12T20:54:23.465Z,50.30
2022-10-12T20:57:12.795Z,50.20
2022-10-12T21:00:02.228Z,50.20
2022-10-12T21:02:51.730Z,50.20
2022-10-12T21:05:42.400Z,50.30
2022-10-12T21:08:31.743Z,50.50
2022-10-12T21:11:22.773Z,50.40
2022-10-12T21:14:13.234Z,50.50
2022-10-12T21:17:02.538Z,50.70
2022-10-12T21:19:53.688Z,50.80
2022-10-12T21:22:47.232Z,50.70
2022-10-12T21:25:36.546Z,50.80
2022-10-12T21:28:25.950Z,50.80
2022-10-12T21:31:16.380Z,50.80
2022-10-12T21:34:08.704Z,51.00
2022-10-12T21:36:58.054Z,51.10
2022-10-12T21:39:52.111Z,51.10
2022-10-12T21:42:43.621Z,51.30
2022-10-12T21:45:33.857Z,51.30
2022-10-12T21:48:23.245Z,51.20
2022-10-12T21:51:13.064Z,51.30
2022-10-12T21:54:02.470Z,51.40
2022-10-12T21:56:53.164Z,51.40
2022-10-12T21:59:42.434Z,51.40
2022-10-12T22:02:31.746Z,51.70
2022-10-12T22:05:21.023Z,51.70
2022-10-12T22:08:11.854Z,51.80
2022-10-12T22:11:06.822Z,51.90
2022-10-12T22:14:01.419Z,52.20
2022-10-12T22:16:50.722Z,52.00
2022-10-12T22:19:40.059Z,51.80
2022-10-12T22:22:29.467Z,52.00
2022-10-12T22:25:18.905Z,51.90
2022-10-12T22:28:08.185Z,52.10
2022-10-12T22:31:02.221Z,52.00
2022-10-12T22:33:51.957Z,52.20
2022-10-12T22:36:41.398Z,52.30
2022-10-12T22:39:30.717Z,52.30
2022-10-12T22:42:20.373Z,52.30
2022-10-12T22:45:11.101Z,52.20
2022-10-12T22:48:01.823Z,52.50
2022-10-12T22:50:52.454Z,52.60
2022-10-12T22:53:41.760Z,52.60
2022-10-12T22:56:31.096Z,52.60
2022-10-12T22:59:20.614Z,52.70
2022-10-12T23:02:10.012Z,52.90
2022-10-12T23:05:00.676Z,52.90
2022-10-12T23:07:50.041Z,53.10
2022-10-12T23:10:39.684Z,53.00
2022-10-12T23:13:29.044Z,53.20
2022-10-12T23:16:21.506Z,53.10
2022-10-12T23:19:11.625Z,53.10
2022-10-12T23:22:02.293Z,53.00
2022-10-12T23:24:51.702Z,53.10
2022-10-12T23:27:41.093Z,53.10
2022-10-12T23:30:30.380Z,53.20
2022-10-12T23:33:19.728Z,53.10
2022-10-12T23:36:11.633Z,53.20
2022-10-12T23:39:03.226Z,53.30
2022-10-12T23:41:52.751Z,53.40
2022-10-12T23:44:42.058Z,53.30
2022-10-12T23:47:31.382Z,53.50
2022-10-12T23:50:20.760Z,53.40
2022-10-12T23:53:11.603Z,54.20
2022-10-12T23:56:02.323Z,53.60
2022-10-12T23:58:51.715Z,53.80
